West Portsmouth, Ohio
Current Conditions -  °F | °C
As of 2:55 PM on Thursday 27 Nov 2014 (Local Time) from KDWU Reporting Station
Overcast Overcast  
Wind Chill: 28°   Ceiling: 4100
Heat Index: 36°   Visibility: 8mi
Dew Point: 21°   Wind: 12mph
Humidity: 56%   Direction: 320°NW
Pressure: 30.24"   Gusts: 20mph
Location:  38.76°N, 83.04°W
Report Text: KDWU 271955Z AUTO 32010G17KT 8SM SCT031 OVC041 02/M06 A3024 RMK AO1
Loading
Personal Weather Stations






























Interactive Weather Map New forecast layout! Learn more

10-Day Weather Forecast

Advertisements
Track Severe Weather on mobile